createdAt,value
2019-02-11T00:00:57.684Z,0.90
2019-02-11T00:03:25.971Z,1.00
2019-02-11T00:05:54.559Z,0.93
2019-02-11T00:08:22.947Z,0.93
2019-02-11T00:10:51.348Z,1.10
2019-02-11T00:13:19.640Z,1.00
2019-02-11T00:15:48.023Z,0.90
2019-02-11T00:18:16.375Z,0.90
2019-02-11T00:20:44.893Z,0.90
2019-02-11T00:23:13.349Z,0.90
2019-02-11T00:25:41.743Z,1.03
2019-02-11T00:28:10.061Z,0.87
2019-02-11T00:30:38.368Z,0.90
2019-02-11T00:33:06.832Z,1.10
2019-02-11T00:35:35.253Z,1.00
2019-02-11T00:38:03.570Z,1.50
2019-02-11T00:40:34.395Z,1.47
2019-02-11T00:43:04.249Z,1.33
2019-02-11T00:45:34.202Z,1.30
2019-02-11T00:48:02.688Z,1.30
2019-02-11T00:50:31.015Z,1.70
2019-02-11T00:52:59.328Z,1.40
2019-02-11T00:55:27.819Z,1.57
2019-02-11T00:57:56.182Z,1.50
2019-02-11T01:00:24.583Z,1.40
2019-02-11T01:02:52.915Z,1.60
2019-02-11T01:05:21.237Z,1.53
2019-02-11T01:07:49.558Z,1.77
2019-02-11T01:10:18.400Z,1.40
2019-02-11T01:12:46.730Z,1.70
2019-02-11T01:15:15.097Z,1.50
2019-02-11T01:17:43.423Z,1.50
2019-02-11T01:20:12.421Z,1.83
2019-02-11T01:22:40.805Z,1.60
2019-02-11T01:25:09.278Z,1.80
2019-02-11T01:27:37.750Z,1.77
2019-02-11T01:30:09.378Z,1.90
2019-02-11T01:32:37.714Z,1.43
2019-02-11T01:35:07.059Z,1.90
2019-02-11T01:37:35.547Z,2.17
2019-02-11T01:40:05.633Z,1.57
2019-02-11T01:42:34.032Z,1.80
2019-02-11T01:45:02.318Z,1.60
2019-02-11T01:47:30.703Z,1.83
2019-02-11T01:49:59.097Z,2.03
2019-02-11T01:52:27.482Z,1.63
2019-02-11T01:54:55.846Z,1.70
2019-02-11T01:57:24.186Z,1.63
2019-02-11T01:59:52.569Z,1.60
2019-02-11T02:02:21.005Z,1.67
2019-02-11T02:04:49.344Z,1.87
2019-02-11T02:07:17.936Z,1.80
2019-02-11T02:09:47.499Z,1.80
2019-02-11T02:12:15.857Z,1.60
2019-02-11T02:14:44.181Z,1.47
2019-02-11T02:17:12.544Z,1.80
2019-02-11T02:19:40.967Z,1.43
2019-02-11T02:22:09.333Z,2.30
2019-02-11T02:24:37.719Z,1.97
2019-02-11T02:27:06.009Z,1.60
2019-02-11T02:29:34.367Z,1.70
2019-02-11T02:32:02.681Z,1.70
2019-02-11T02:34:35.851Z,1.60
2019-02-11T02:37:04.168Z,1.57
2019-02-11T02:39:32.563Z,1.63
2019-02-11T02:42:00.903Z,1.37
2019-02-11T02:44:29.251Z,1.70
2019-02-11T02:46:57.512Z,1.60
2019-02-11T02:49:25.874Z,1.57
2019-02-11T02:51:54.201Z,1.20
2019-02-11T02:54:22.580Z,1.90
2019-02-11T02:56:50.905Z,1.43
2019-02-11T02:59:19.187Z,1.27
2019-02-11T03:01:47.673Z,1.50
2019-02-11T03:04:16.062Z,1.87
2019-02-11T03:06:44.382Z,1.80
2019-02-11T03:09:12.664Z,1.57
2019-02-11T03:11:41.127Z,1.90
2019-02-11T03:14:09.466Z,1.70
2019-02-11T03:16:37.789Z,1.70
2019-02-11T03:19:06.326Z,1.70
2019-02-11T03:21:34.828Z,1.40
2019-02-11T03:24:03.143Z,2.00
2019-02-11T03:26:31.530Z,1.90
2019-02-11T03:29:00.017Z,1.97
2019-02-11T03:31:28.350Z,2.17
2019-02-11T03:33:56.639Z,1.77
2019-02-11T03:36:24.915Z,2.20
2019-02-11T03:38:53.514Z,2.00
2019-02-11T03:41:21.895Z,1.97
2019-02-11T03:43:50.399Z,2.10
2019-02-11T03:46:18.771Z,2.80
2019-02-11T03:48:47.092Z,1.93
2019-02-11T03:51:15.375Z,1.90
2019-02-11T03:53:43.765Z,1.53
2019-02-11T03:56:14.919Z,2.17
2019-02-11T03:58:43.233Z,2.10
2019-02-11T04:01:11.603Z,1.83
2019-02-11T04:03:43.227Z,2.20
2019-02-11T04:06:11.513Z,2.27
2019-02-11T04:08:39.839Z,2.10
2019-02-11T04:11:08.124Z,2.20
2019-02-11T04:13:36.461Z,2.00
2019-02-11T04:16:04.752Z,1.90
2019-02-11T04:18:33.077Z,1.60
2019-02-11T04:21:01.535Z,2.73
2019-02-11T04:23:29.836Z,2.27
2019-02-11T04:25:58.141Z,2.17
2019-02-11T04:28:28.184Z,2.20
2019-02-11T04:30:56.536Z,2.67
2019-02-11T04:33:24.827Z,2.40
2019-02-11T04:35:53.329Z,2.13
2019-02-11T04:38:24.707Z,2.37
2019-02-11T04:40:53.109Z,2.30
2019-02-11T04:43:21.465Z,2.20
2019-02-11T04:45:49.775Z,2.40
2019-02-11T04:48:18.057Z,2.33
2019-02-11T04:50:46.728Z,2.20
2019-02-11T04:53:15.392Z,1.80
2019-02-11T04:55:43.723Z,1.80
2019-02-11T04:58:12.033Z,2.27
2019-02-11T05:00:40.525Z,1.90
2019-02-11T05:03:08.827Z,1.93
2019-02-11T05:05:37.159Z,2.60
2019-02-11T05:08:05.521Z,2.27
2019-02-11T05:10:33.831Z,1.40
2019-02-11T05:13:02.185Z,2.40
2019-02-11T05:15:30.577Z,2.30
2019-02-11T05:17:58.932Z,2.10
2019-02-11T05:20:27.244Z,2.60
2019-02-11T05:22:55.600Z,2.20
2019-02-11T05:25:24.204Z,1.87
2019-02-11T05:27:52.574Z,2.30
2019-02-11T05:30:20.906Z,4.00
2019-02-11T05:32:49.323Z,2.10
2019-02-11T05:35:17.741Z,2.23
2019-02-11T05:37:46.018Z,1.77
2019-02-11T05:40:14.312Z,2.40
2019-02-11T05:42:42.687Z,1.60
2019-02-11T05:45:10.854Z,2.67
2019-02-11T05:47:39.614Z,2.10
2019-02-11T05:50:10.338Z,2.10
2019-02-11T05:52:41.454Z,2.20
2019-02-11T05:55:09.748Z,1.70
2019-02-11T05:57:38.084Z,1.60
2019-02-11T06:00:10.069Z,2.10
2019-02-11T06:02:38.427Z,2.57
2019-02-11T06:05:07.768Z,1.93
2019-02-11T06:07:36.159Z,1.67
2019-02-11T06:10:07.284Z,2.10
2019-02-11T06:12:35.896Z,2.20
2019-02-11T06:15:06.568Z,2.73
2019-02-11T06:17:34.986Z,2.60
2019-02-11T06:20:03.641Z,1.90
2019-02-11T06:22:32.120Z,2.43
2019-02-11T06:25:00.505Z,1.80
2019-02-11T06:27:28.797Z,2.17
2019-02-11T06:29:57.138Z,2.00
2019-02-11T06:32:26.204Z,2.37
2019-02-11T06:34:54.512Z,2.70
2019-02-11T06:37:22.882Z,2.33
2019-02-11T06:39:53.462Z,2.30
2019-02-11T06:42:21.819Z,2.20
2019-02-11T06:44:50.216Z,1.67
2019-02-11T06:47:19.700Z,2.83
2019-02-11T06:49:48.334Z,2.83
2019-02-11T06:52:16.706Z,2.40
2019-02-11T06:54:45.403Z,1.77
2019-02-11T06:57:14.002Z,2.40
2019-02-11T06:59:42.344Z,2.20
2019-02-11T07:02:10.603Z,2.17
2019-02-11T07:04:38.988Z,2.40
2019-02-11T07:07:07.362Z,2.03
2019-02-11T07:09:35.976Z,2.30
2019-02-11T07:12:04.250Z,5.50
2019-02-11T07:14:32.562Z,2.30
2019-02-11T07:17:00.893Z,2.30
2019-02-11T07:19:30.770Z,1.93
2019-02-11T07:21:59.153Z,2.23
2019-02-11T07:24:27.509Z,2.70
2019-02-11T07:26:55.966Z,2.07
2019-02-11T07:29:24.259Z,2.33
2019-02-11T07:31:52.738Z,4.17
2019-02-11T07:34:21.020Z,2.60
2019-02-11T07:36:49.824Z,2.90
2019-02-11T07:39:18.119Z,2.40
2019-02-11T07:42:04.720Z,2.60
2019-02-11T07:44:33.341Z,2.70
2019-02-11T07:47:01.689Z,2.27
2019-02-11T07:49:30.004Z,2.93
2019-02-11T07:51:58.542Z,2.83
2019-02-11T07:54:26.849Z,2.43
2019-02-11T07:56:55.327Z,2.50
2019-02-11T07:59:23.661Z,2.97
2019-02-11T08:01:52.065Z,2.20
2019-02-11T08:04:20.441Z,2.40
2019-02-11T08:06:49.097Z,2.60
2019-02-11T08:09:17.611Z,2.77
2019-02-11T08:11:46.121Z,2.20
2019-02-11T08:14:14.579Z,2.70
2019-02-11T08:16:44.600Z,2.67
2019-02-11T08:19:12.888Z,2.43
2019-02-11T08:21:41.478Z,2.20
2019-02-11T08:24:09.852Z,2.30
2019-02-11T08:26:38.179Z,2.10
2019-02-11T08:29:06.488Z,2.53
2019-02-11T08:31:34.841Z,2.50
2019-02-11T08:34:03.526Z,2.50
2019-02-11T08:36:31.898Z,2.60
2019-02-11T08:39:02.088Z,2.60
2019-02-11T08:41:30.330Z,2.00
2019-02-11T08:43:58.686Z,2.60
2019-02-11T08:46:27.145Z,2.20
2019-02-11T08:48:55.557Z,2.23
2019-02-11T08:51:23.851Z,2.20
2019-02-11T08:53:52.242Z,2.57
2019-02-11T08:56:20.623Z,2.30
2019-02-11T08:58:49.030Z,2.87
2019-02-11T09:01:17.420Z,3.00
2019-02-11T09:03:46.226Z,2.97
2019-02-11T09:06:14.601Z,2.83
2019-02-11T09:08:42.936Z,2.67
2019-02-11T09:11:11.376Z,2.40
2019-02-11T09:13:39.704Z,2.53
2019-02-11T09:16:08.078Z,1.97
2019-02-11T09:18:36.471Z,2.27
2019-02-11T09:21:04.940Z,2.70
2019-02-11T09:23:33.305Z,1.70
2019-02-11T09:26:01.668Z,1.97
2019-02-11T09:28:29.965Z,1.87
2019-02-11T09:30:58.565Z,1.60
2019-02-11T09:33:26.673Z,1.90
2019-02-11T09:35:55.077Z,1.67
2019-02-11T09:38:23.666Z,1.83
2019-02-11T09:40:51.986Z,2.23
2019-02-11T09:43:20.354Z,1.67
2019-02-11T09:45:48.724Z,2.03
2019-02-11T09:48:17.100Z,1.70
2019-02-11T09:50:47.587Z,1.73
2019-02-11T09:53:16.005Z,1.40
2019-02-11T09:55:44.362Z,1.60
2019-02-11T09:58:12.657Z,1.90
2019-02-11T10:00:41.039Z,1.57
2019-02-11T10:03:09.741Z,1.73
2019-02-11T10:05:38.078Z,1.50
2019-02-11T10:08:06.453Z,2.20
2019-02-11T10:10:34.783Z,2.00
2019-02-11T10:13:03.095Z,2.00
2019-02-11T10:15:31.477Z,1.90
2019-02-11T10:18:01.595Z,3.20
2019-02-11T10:20:29.917Z,2.00
2019-02-11T10:22:58.306Z,1.73
2019-02-11T10:25:28.922Z,2.00
2019-02-11T10:28:00.255Z,2.07
2019-02-11T10:30:28.864Z,2.20
2019-02-11T10:32:57.305Z,1.97
2019-02-11T10:35:25.707Z,2.30
2019-02-11T10:37:54.136Z,1.80
2019-02-11T10:40:25.196Z,1.63
2019-02-11T10:42:52.927Z,2.63
2019-02-11T10:45:21.345Z,2.20
2019-02-11T10:47:49.655Z,1.50
2019-02-11T10:50:19.713Z,1.90
2019-02-11T10:52:48.119Z,2.10
2019-02-11T10:55:20.572Z,1.73
2019-02-11T10:57:48.974Z,2.07
2019-02-11T11:00:20.009Z,1.60
2019-02-11T11:02:48.423Z,1.53
2019-02-11T11:05:17.079Z,1.60
2019-02-11T11:07:46.776Z,2.07
2019-02-11T11:10:26.646Z,1.50
2019-02-11T11:12:55.027Z,1.80
2019-02-11T11:15:24.899Z,2.00
2019-02-11T11:17:53.227Z,1.80
2019-02-11T11:20:21.905Z,1.70
2019-02-11T11:22:50.223Z,1.83
2019-02-11T11:25:18.640Z,2.00
2019-02-11T11:27:47.080Z,1.80
2019-02-11T11:30:16.312Z,2.23
2019-02-11T11:32:44.986Z,2.17
2019-02-11T11:35:15.278Z,2.30
2019-02-11T11:37:43.722Z,2.20
2019-02-11T11:40:14.838Z,2.80
2019-02-11T11:42:43.993Z,2.30
2019-02-11T11:45:14.668Z,2.30
2019-02-11T11:47:43.697Z,2.27
2019-02-11T11:50:12.633Z,2.37
2019-02-11T11:52:40.983Z,2.23
2019-02-11T11:55:11.520Z,2.37
2019-02-11T11:57:39.894Z,2.10
2019-02-11T12:00:11.513Z,2.53
2019-02-11T12:02:39.797Z,1.77
2019-02-11T12:05:08.269Z,2.53
2019-02-11T12:07:37.510Z,2.00
2019-02-11T12:10:07.396Z,2.03
2019-02-11T12:12:35.850Z,3.53
2019-02-11T12:15:08.313Z,2.30
2019-02-11T12:17:36.579Z,2.40
2019-02-11T12:20:09.627Z,2.40
2019-02-11T12:22:38.341Z,2.90
2019-02-11T12:25:18.905Z,2.27
2019-02-11T12:27:47.354Z,2.17
2019-02-11T12:30:26.640Z,2.80
2019-02-11T12:32:56.095Z,2.93
2019-02-11T12:35:25.112Z,2.23
2019-02-11T12:37:53.505Z,2.50
2019-02-11T12:40:21.877Z,2.30
2019-02-11T12:42:54.089Z,2.10
2019-02-11T12:45:25.631Z,2.00
2019-02-11T12:47:54.289Z,2.20
2019-02-11T12:50:22.591Z,2.20
2019-02-11T12:52:50.924Z,3.23
2019-02-11T12:55:19.639Z,2.97
2019-02-11T12:57:47.960Z,2.47
2019-02-11T13:00:25.763Z,2.20
2019-02-11T13:02:54.199Z,2.03
2019-02-11T13:05:32.249Z,2.80
2019-02-11T13:07:52.886Z,3.10
2019-02-11T13:10:21.438Z,2.23
2019-02-11T13:12:50.146Z,2.50
2019-02-11T13:15:42.814Z,2.53
2019-02-11T13:17:49.467Z,2.37
2019-02-11T13:20:18.601Z,2.37
2019-02-11T13:22:47.076Z,2.40
2019-02-11T13:25:16.509Z,2.10
2019-02-11T13:27:45.220Z,2.50
2019-02-11T13:30:26.318Z,3.13
2019-02-11T13:32:54.749Z,2.80
2019-02-11T13:35:23.142Z,2.30
2019-02-11T13:37:54.684Z,2.20
2019-02-11T13:40:21.499Z,2.60
2019-02-11T13:42:49.797Z,2.30
2019-02-11T13:45:19.856Z,2.53
2019-02-11T13:47:54.457Z,2.50
2019-02-11T13:50:21.698Z,2.30
2019-02-11T13:52:50.759Z,2.60
2019-02-11T13:55:19.212Z,2.60
2019-02-11T13:57:47.562Z,2.40
2019-02-11T14:00:34.346Z,2.30
2019-02-11T14:03:05.275Z,2.50
2019-02-11T14:05:33.903Z,3.00
2019-02-11T14:08:02.733Z,2.37
2019-02-11T14:12:41.069Z,4.13
2019-02-11T14:15:09.839Z,2.57
2019-02-11T14:17:38.127Z,2.70
2019-02-11T14:20:09.625Z,2.20
2019-02-11T14:22:39.688Z,2.50
2019-02-11T14:25:09.702Z,2.40
2019-02-11T14:27:38.076Z,2.63
2019-02-11T14:30:09.752Z,3.30
2019-02-11T14:32:38.125Z,3.77
2019-02-11T14:35:07.880Z,2.97
2019-02-11T14:37:37.460Z,5.50
2019-02-11T14:40:08.310Z,4.30
2019-02-11T14:42:36.744Z,3.07
2019-02-11T14:45:13.641Z,2.27
2019-02-11T14:47:44.328Z,3.30
2019-02-11T14:50:12.330Z,2.70
2019-02-11T14:52:40.612Z,2.40
2019-02-11T14:55:10.643Z,2.50
2019-02-11T14:57:39.412Z,2.23
2019-02-11T15:00:18.047Z,2.70
2019-02-11T15:02:46.402Z,2.00
2019-02-11T15:05:15.045Z,2.40
2019-02-11T15:07:43.730Z,2.27
2019-02-11T15:10:12.939Z,2.60
2019-02-11T15:12:41.393Z,2.60
2019-02-11T15:15:11.886Z,2.50
2019-02-11T15:17:41.851Z,2.60
2019-02-11T15:20:15.779Z,2.20
2019-02-11T15:22:44.230Z,2.50
2019-02-11T15:25:18.023Z,1.90
2019-02-11T15:27:46.445Z,2.00
2019-02-11T15:30:16.770Z,1.90
2019-02-11T15:32:45.179Z,1.83
2019-02-11T15:35:13.563Z,1.70
2019-02-11T15:37:41.892Z,2.20
2019-02-11T15:40:23.495Z,2.37
2019-02-11T15:42:51.901Z,2.47
2019-02-11T15:45:20.423Z,1.93
2019-02-11T15:47:48.756Z,2.10
2019-02-11T15:50:20.115Z,1.90
2019-02-11T15:52:48.460Z,1.50
2019-02-11T15:55:19.230Z,1.90
2019-02-11T15:57:47.709Z,1.93
2019-02-11T16:00:18.076Z,2.30
2019-02-11T16:02:46.501Z,2.17
2019-02-11T16:05:16.728Z,3.50
2019-02-11T16:07:45.138Z,2.23
2019-02-11T16:10:18.842Z,2.63
2019-02-11T16:12:47.121Z,2.17
2019-02-11T16:15:15.798Z,2.40
2019-02-11T16:17:44.157Z,1.83
2019-02-11T16:20:14.543Z,2.20
2019-02-11T16:22:43.421Z,2.20
2019-02-11T16:25:15.548Z,2.60
2019-02-11T16:27:43.980Z,2.30
2019-02-11T16:30:17.486Z,2.57
2019-02-11T16:32:45.834Z,2.60
2019-02-11T16:35:15.975Z,3.17
2019-02-11T16:37:44.441Z,2.80
2019-02-11T16:40:15.900Z,2.53
2019-02-11T16:42:45.902Z,2.30
2019-02-11T16:45:16.617Z,2.00
2019-02-11T16:48:07.120Z,2.50
2019-02-11T16:50:38.741Z,2.77
2019-02-11T16:53:08.082Z,2.70
2019-02-11T16:55:36.998Z,2.90
2019-02-11T16:58:05.556Z,2.90
2019-02-11T17:00:34.748Z,2.30
2019-02-11T17:03:03.242Z,3.47
2019-02-11T17:05:31.587Z,3.40
2019-02-11T17:07:59.929Z,3.83
2019-02-11T17:10:28.390Z,3.90
2019-02-11T17:12:56.885Z,3.17
2019-02-11T17:15:25.275Z,3.20
2019-02-11T17:17:54.775Z,3.97
2019-02-11T17:20:23.124Z,3.43
2019-02-11T17:22:51.513Z,3.93
2019-02-11T17:25:19.816Z,3.00
2019-02-11T17:27:48.937Z,2.73
2019-02-11T17:30:22.857Z,3.23
2019-02-11T17:32:52.145Z,3.80
2019-02-11T17:35:20.539Z,3.23
2019-02-11T17:37:49.157Z,3.40
2019-02-11T17:40:17.649Z,4.70
2019-02-11T17:42:46.268Z,3.10
2019-02-11T17:45:18.016Z,2.47
2019-02-11T17:47:46.468Z,3.30
2019-02-11T17:50:15.152Z,3.57
2019-02-11T17:52:43.663Z,2.90
2019-02-11T17:55:13.987Z,2.40
2019-02-11T17:57:42.538Z,3.43
2019-02-11T18:00:15.991Z,3.30
2019-02-11T18:02:44.310Z,4.33
2019-02-11T18:05:12.715Z,3.50
2019-02-11T18:07:41.077Z,3.47
2019-02-11T18:10:10.453Z,2.80
2019-02-11T18:12:38.737Z,3.17
2019-02-11T18:15:10.119Z,2.07
2019-02-11T18:17:38.423Z,3.60
2019-02-11T18:20:09.211Z,2.80
2019-02-11T18:22:37.515Z,3.03
2019-02-11T18:25:08.118Z,3.00
2019-02-11T18:27:36.422Z,3.17
2019-02-11T18:30:08.442Z,3.00
2019-02-11T18:32:36.911Z,2.97
2019-02-11T18:35:08.749Z,3.73
2019-02-11T18:37:37.181Z,3.87
2019-02-11T18:40:12.008Z,3.20
2019-02-11T18:42:40.505Z,4.30
2019-02-11T18:45:15.616Z,3.43
2019-02-11T18:47:45.059Z,4.50
2019-02-11T18:50:14.891Z,2.70
2019-02-11T18:52:43.398Z,3.30
2019-02-11T18:55:16.786Z,3.50
2019-02-11T18:57:45.076Z,4.23
2019-02-11T19:00:19.119Z,4.27
2019-02-11T19:02:48.070Z,3.70
2019-02-11T19:05:16.970Z,4.00
2019-02-11T19:07:45.445Z,3.40
2019-02-11T19:10:16.175Z,4.23
2019-02-11T19:12:44.607Z,5.20
2019-02-11T19:15:15.222Z,4.00
2019-02-11T19:17:43.890Z,3.93
2019-02-11T19:20:14.517Z,4.93
2019-02-11T19:22:42.956Z,3.97
2019-02-11T19:25:12.259Z,4.07
2019-02-11T19:27:42.191Z,5.03
2019-02-11T19:30:24.948Z,4.50
2019-02-11T19:32:55.106Z,4.07
2019-02-11T19:35:24.702Z,2.87
2019-02-11T19:37:54.524Z,4.60
2019-02-11T19:40:22.988Z,4.20
2019-02-11T19:42:51.488Z,4.10
2019-02-11T19:45:21.423Z,3.67
2019-02-11T19:47:50.450Z,4.27
2019-02-11T19:50:19.132Z,4.40
2019-02-11T19:52:47.975Z,4.80
2019-02-11T19:55:17.104Z,3.77
2019-02-11T19:57:45.625Z,3.30
2019-02-11T20:00:21.803Z,4.20
2019-02-11T20:02:50.674Z,4.50
2019-02-11T20:05:19.247Z,3.93
2019-02-11T20:07:47.919Z,3.97
2019-02-11T20:10:18.963Z,3.80
2019-02-11T20:12:47.500Z,3.70
2019-02-11T20:15:18.061Z,4.70
2019-02-11T20:17:46.567Z,4.37
2019-02-11T20:20:17.396Z,5.53
2019-02-11T20:22:46.038Z,5.37
2019-02-11T20:25:14.732Z,4.30
2019-02-11T20:27:43.177Z,5.23
2019-02-11T20:30:14.597Z,4.07
2019-02-11T20:32:42.943Z,4.57
2019-02-11T20:35:11.456Z,4.10
2019-02-11T20:37:39.959Z,4.00
2019-02-11T20:40:14.338Z,3.00
2019-02-11T20:42:42.718Z,2.30
2019-02-11T20:45:13.907Z,1.87
2019-02-11T20:47:42.380Z,2.00
2019-02-11T20:50:12.187Z,1.90
2019-02-11T20:52:40.665Z,2.07
2019-02-11T20:55:14.360Z,2.00
2019-02-11T20:57:43.818Z,2.90
2019-02-11T21:00:17.711Z,2.67
2019-02-11T21:02:46.955Z,2.80
2019-02-11T21:05:15.336Z,4.00
2019-02-11T21:07:43.886Z,5.50
2019-02-11T21:10:21.382Z,3.20
2019-02-11T21:12:49.798Z,2.60
2019-02-11T21:15:18.239Z,3.20
2019-02-11T21:17:46.963Z,2.60
2019-02-11T21:20:30.645Z,3.00
2019-02-11T21:22:59.004Z,3.03
2019-02-11T21:25:27.384Z,3.60
2019-02-11T21:27:55.682Z,2.17
2019-02-11T21:30:24.165Z,3.03
2019-02-11T21:32:52.550Z,3.73
2019-02-11T21:35:20.922Z,3.30
2019-02-11T21:37:50.640Z,3.87
2019-02-11T21:40:20.566Z,4.10
2019-02-11T21:42:50.288Z,3.80
2019-02-11T21:45:20.717Z,4.03
2019-02-11T21:47:50.475Z,4.00
2019-02-11T21:50:26.890Z,4.60
2019-02-11T21:52:54.316Z,3.43
2019-02-11T21:55:26.170Z,3.77
2019-02-11T21:57:56.317Z,2.77
2019-02-11T22:00:26.302Z,4.50
2019-02-11T22:02:54.742Z,4.37
2019-02-11T22:05:26.379Z,3.33
2019-02-11T22:07:56.227Z,3.63
2019-02-11T22:10:25.843Z,3.30
2019-02-11T22:12:55.107Z,3.37
2019-02-11T22:15:24.971Z,2.97
2019-02-11T22:17:55.104Z,3.23
2019-02-11T22:20:34.341Z,3.63
2019-02-11T22:22:56.893Z,3.30
2019-02-11T22:25:25.921Z,3.20
2019-02-11T22:27:57.176Z,3.20
2019-02-11T22:30:26.972Z,3.60
2019-02-11T22:32:56.980Z,3.03
2019-02-11T22:35:26.658Z,3.03
2019-02-11T22:37:56.640Z,3.50
2019-02-11T22:40:26.007Z,2.90
2019-02-11T22:42:55.190Z,2.50
2019-02-11T22:45:26.719Z,3.00
2019-02-11T22:47:55.370Z,3.03
2019-02-11T22:50:24.219Z,4.60
2019-02-11T22:52:54.015Z,3.60
2019-02-11T22:55:22.665Z,3.60
2019-02-11T22:57:51.892Z,3.03
2019-02-11T23:00:27.724Z,3.10
2019-02-11T23:02:57.919Z,3.07
2019-02-11T23:05:26.684Z,3.37
2019-02-11T23:07:56.257Z,3.33
2019-02-11T23:10:25.891Z,3.20
2019-02-11T23:12:54.855Z,2.70
2019-02-11T23:15:25.241Z,3.40
2019-02-11T23:17:54.498Z,3.70
2019-02-11T23:20:24.654Z,3.10
2019-02-11T23:22:53.940Z,3.00
2019-02-11T23:25:22.844Z,2.90
2019-02-11T23:27:53.333Z,2.70
2019-02-11T23:30:22.972Z,3.00
2019-02-11T23:32:52.566Z,3.63
2019-02-11T23:35:22.449Z,3.80
2019-02-11T23:37:52.208Z,3.60
2019-02-11T23:40:22.190Z,3.23
2019-02-11T23:42:51.892Z,4.03
2019-02-11T23:45:21.067Z,3.50
2019-02-11T23:47:50.978Z,3.53
2019-02-11T23:50:19.373Z,3.37
2019-02-11T23:52:49.528Z,3.63
2019-02-11T23:55:19.971Z,3.50
2019-02-11T23:57:48.790Z,3.47
